Airfield :
LOGIN :

Register | Disclaimer

   EN    FR    IT 

 










Legend :    VFR   Marginal VFR   IFR   Intensive IFR   Very Intensive IFR
Visi :
Ceiling :
>= 8 km
>= 3000ft
5 to 8 km
1000 to 3000 ft
1500m to 5 km
500 to 1000 ft
800 to 1500m
200 to 500 ft
< 800m
< 200 ft
Symbols :   Thunderstorms  Fog  Heavy snow  Heavy precipitations  Wind > 20 kt
SIGMETs :     Misc.  Thunderstorms  Icing  Turbulence  Mountain Waves  Volcanic Ashes






- Airport Elevation : 326 ft
- IATA code : LCG


LECO - A Coruna

CURRENT METAR :
  • 261130Z 19014KT 160V230 9999 FEW025 20/17 Q1019 NOSIG

EXPIRED METARs :
  • 261100Z 20015KT 160V230 9999 SCT027 20/17 Q1019 NOSIG
  • 261030Z 20013KT 160V240 9999 SCT021 BKN029 21/18 Q1019 NOSIG
  • 261000Z 19010KT 140V230 9999 BKN022 BKN029 20/18 Q1019 NOSIG
  • 260930Z 20009KT 160V240 9999 BKN022 BKN029 19/17 Q1019 NOSIG
  • 260900Z 18009KT 140V210 9999 SCT022 SCT029 19/17 Q1019 NOSIG

TAF TAF LECO
Valid from the 26 at 09:00 until the 27 at 09:00 UTC


260800Z 2609/2709 20009KT 9999 SCT030 TX23/2615Z TN12/2705Z
PROB40
TEMPO 2700/2707 3000 BCFG BKN010
PROB30
TEMPO 2703/2707 0350 FG VV001
PROB40
TEMPO 2700/2706 28015G28KT
TEMPO 2700/2709 29010KT
TEMPO 2700/2706 3000 RA BKN010



MET'MAP, your aeronautical weather chart ! - Copyright ORBIFLY December 2007 - Disclaimer

ORBIFLY MET'MAP TEAM :

Programming & Development : Alexandra Zaïnal
Concept & original design : Baudouin d'Aumeries
Assistance for programming : Marc-Olivier Méhu
Technical & hardware support : Manuel Goepfert

Contact : metmap@orbifly.com




SOURCES & CREDITS :

   NOAA